createdAt,value
2019-02-09T00:02:06.655Z,8.95
2019-02-09T00:04:36.651Z,8.98
2019-02-09T00:07:06.679Z,8.91
2019-02-09T00:09:36.709Z,9.02
2019-02-09T00:12:06.779Z,8.96
2019-02-09T00:14:36.800Z,9.01
2019-02-09T00:17:06.773Z,8.93
2019-02-09T00:19:36.771Z,8.97
2019-02-09T00:22:06.913Z,8.98
2019-02-09T00:24:36.899Z,9.06
2019-02-09T00:27:06.876Z,8.99
2019-02-09T00:29:36.893Z,8.89
2019-02-09T00:32:06.885Z,8.90
2019-02-09T00:34:36.869Z,8.85
2019-02-09T00:37:06.875Z,8.81
2019-02-09T00:39:38.002Z,8.81
2019-02-09T00:42:08.263Z,8.75
2019-02-09T00:44:38.225Z,8.82
2019-02-09T00:47:08.834Z,8.78
2019-02-09T00:49:38.833Z,8.86
2019-02-09T00:52:08.884Z,8.83
2019-02-09T00:54:38.885Z,8.86
2019-02-09T00:57:08.901Z,8.74
2019-02-09T00:59:38.978Z,8.74
2019-02-09T01:02:09.026Z,8.73
2019-02-09T01:04:39.049Z,8.80
2019-02-09T01:07:09.057Z,8.70
2019-02-09T01:09:39.113Z,8.77
2019-02-09T01:12:09.165Z,8.64
2019-02-09T01:14:39.201Z,8.75
2019-02-09T01:17:09.233Z,8.60
2019-02-09T01:19:39.295Z,8.63
2019-02-09T01:22:09.409Z,8.62
2019-02-09T01:24:39.439Z,8.57
2019-02-09T01:27:09.513Z,8.49
2019-02-09T01:29:39.495Z,8.48
2019-02-09T01:32:09.627Z,8.51
2019-02-09T01:34:39.669Z,8.38
2019-02-09T01:37:09.743Z,8.36
2019-02-09T01:39:42.279Z,8.41
2019-02-09T01:42:12.356Z,8.39
2019-02-09T01:44:42.334Z,8.25
2019-02-09T01:47:12.329Z,8.26
2019-02-09T01:49:42.324Z,8.24
2019-02-09T01:52:12.408Z,8.28
2019-02-09T01:54:42.447Z,8.31
2019-02-09T01:57:12.423Z,8.28
2019-02-09T01:59:42.483Z,8.50
2019-02-09T02:02:12.683Z,8.31
2019-02-09T02:04:42.743Z,8.32
2019-02-09T02:07:12.788Z,8.36
2019-02-09T02:09:42.939Z,8.34
2019-02-09T02:12:13.072Z,8.30
2019-02-09T02:14:43.271Z,8.34
2019-02-09T02:17:13.629Z,8.33
2019-02-09T02:19:43.650Z,8.41
2019-02-09T02:22:13.841Z,8.45
2019-02-09T02:24:43.993Z,8.32
2019-02-09T02:27:14.274Z,8.23
2019-02-09T02:29:44.323Z,8.38
2019-02-09T02:32:14.395Z,8.37
2019-02-09T02:34:44.351Z,8.29
2019-02-09T02:37:14.371Z,8.33
2019-02-09T02:39:44.354Z,8.36
2019-02-09T02:42:14.350Z,8.33
2019-02-09T02:44:44.708Z,8.16
2019-02-09T02:47:14.957Z,8.23
2019-02-09T02:49:44.923Z,8.20
2019-02-09T02:52:14.995Z,8.11
2019-02-09T02:54:45.187Z,8.26
2019-02-09T02:57:15.157Z,8.23
2019-02-09T02:59:45.434Z,8.17
2019-02-09T03:02:15.421Z,8.20
2019-02-09T03:04:45.508Z,8.27
2019-02-09T03:07:15.495Z,8.16
2019-02-09T03:09:45.495Z,8.26
2019-02-09T03:12:15.486Z,8.19
2019-02-09T03:14:45.519Z,8.16
2019-02-09T03:17:15.497Z,8.17
2019-02-09T03:19:45.488Z,8.15
2019-02-09T03:22:15.479Z,8.10
2019-02-09T03:24:45.469Z,8.04
2019-02-09T03:27:15.502Z,8.15
2019-02-09T03:29:45.498Z,8.04
2019-02-09T03:32:15.487Z,8.05
2019-02-09T03:34:45.487Z,8.12
2019-02-09T03:37:15.506Z,8.16
2019-02-09T03:39:45.561Z,8.19
2019-02-09T03:42:15.639Z,8.06
2019-02-09T03:44:45.649Z,8.12
2019-02-09T03:47:15.656Z,8.14
2019-02-09T03:49:45.675Z,8.08
2019-02-09T03:52:15.767Z,8.20
2019-02-09T03:54:45.731Z,8.18
2019-02-09T03:57:15.716Z,8.18
2019-02-09T03:59:45.739Z,8.25
2019-02-09T04:02:15.726Z,8.23
2019-02-09T04:04:45.948Z,8.17
2019-02-09T04:07:16.265Z,8.19
2019-02-09T04:09:46.616Z,8.32
2019-02-09T04:12:16.653Z,8.28
2019-02-09T04:14:46.723Z,8.36
2019-02-09T04:17:16.713Z,8.24
2019-02-09T04:19:46.703Z,8.32
2019-02-09T04:22:16.694Z,8.25
2019-02-09T04:24:46.665Z,8.24
2019-02-09T04:27:16.637Z,8.30
2019-02-09T04:29:46.649Z,8.31
2019-02-09T04:32:16.647Z,8.25
2019-02-09T04:34:46.700Z,8.31
2019-02-09T04:37:16.711Z,8.27
2019-02-09T04:39:46.702Z,8.21
2019-02-09T04:42:16.688Z,8.15
2019-02-09T04:44:46.904Z,8.15
2019-02-09T04:47:16.882Z,8.15
2019-02-09T04:49:46.884Z,8.28
2019-02-09T04:52:17.018Z,8.18
2019-02-09T04:54:47.025Z,8.18
2019-02-09T04:57:17.014Z,8.14
2019-02-09T04:59:47.034Z,8.21
2019-02-09T05:02:17.132Z,8.18
2019-02-09T05:04:47.122Z,8.13
2019-02-09T05:07:17.124Z,8.31
2019-02-09T05:09:47.139Z,8.19
2019-02-09T05:12:17.150Z,8.15
2019-02-09T05:14:47.134Z,8.20
2019-02-09T05:17:17.161Z,8.13
2019-02-09T05:19:47.376Z,8.16
2019-02-09T05:22:17.306Z,8.24
2019-02-09T05:24:47.275Z,8.14
2019-02-09T05:27:17.233Z,8.24
2019-02-09T05:29:47.228Z,8.21
2019-02-09T05:32:17.204Z,8.19
2019-02-09T05:34:47.199Z,8.21
2019-02-09T05:37:17.164Z,8.25
2019-02-09T05:39:47.136Z,8.28
2019-02-09T05:42:17.098Z,8.25
2019-02-09T05:44:47.093Z,8.32
2019-02-09T05:47:17.075Z,8.37
2019-02-09T05:49:47.069Z,8.31
2019-02-09T05:52:17.038Z,8.38
2019-02-09T05:54:47.177Z,8.46
2019-02-09T05:57:17.146Z,8.41
2019-02-09T05:59:47.178Z,8.37
2019-02-09T06:02:17.179Z,8.33
2019-02-09T06:04:47.148Z,8.35
2019-02-09T06:07:17.131Z,8.35
2019-02-09T06:09:47.084Z,8.44
2019-02-09T06:12:18.138Z,8.47
2019-02-09T06:14:48.118Z,8.47
2019-02-09T06:17:18.110Z,8.46
2019-02-09T06:19:48.224Z,8.46
2019-02-09T06:22:18.230Z,8.50
2019-02-09T06:24:48.245Z,8.44
2019-02-09T06:27:18.205Z,8.53
2019-02-09T06:29:48.197Z,8.40
2019-02-09T06:32:18.180Z,8.49
2019-02-09T06:34:48.166Z,8.38
2019-02-09T06:37:18.133Z,8.56
2019-02-09T06:39:48.125Z,8.35
2019-02-09T06:42:18.096Z,8.42
2019-02-09T06:44:48.098Z,8.32
2019-02-09T06:47:18.108Z,8.27
2019-02-09T06:49:48.087Z,8.32
2019-02-09T06:52:18.274Z,8.26
2019-02-09T06:54:48.268Z,8.10
2019-02-09T06:57:19.939Z,8.12
2019-02-09T06:59:50.187Z,8.28
2019-02-09T07:02:20.178Z,8.19
2019-02-09T07:04:50.213Z,8.16
2019-02-09T07:07:20.194Z,8.10
2019-02-09T07:09:50.208Z,8.25
2019-02-09T07:12:20.308Z,8.15
2019-02-09T07:14:50.304Z,8.20
2019-02-09T07:17:20.281Z,8.21
2019-02-09T07:19:50.293Z,8.26
2019-02-09T07:22:20.270Z,8.29
2019-02-09T07:24:50.354Z,8.36
2019-02-09T07:27:20.293Z,8.25
2019-02-09T07:29:50.320Z,8.40
2019-02-09T07:32:20.295Z,8.29
2019-02-09T07:34:50.285Z,8.25
2019-02-09T07:37:20.265Z,8.22
2019-02-09T07:39:50.254Z,8.34
2019-02-09T07:42:20.232Z,8.26
2019-02-09T07:44:50.281Z,8.23
2019-02-09T07:47:20.283Z,8.22
2019-02-09T07:49:50.340Z,8.27
2019-02-09T07:52:20.304Z,8.26
2019-02-09T07:54:50.414Z,8.24
2019-02-09T07:57:20.383Z,8.39
2019-02-09T07:59:50.447Z,8.37
2019-02-09T08:02:20.439Z,8.39
2019-02-09T08:04:50.449Z,8.59
2019-02-09T08:07:20.447Z,8.55
2019-02-09T08:09:50.455Z,8.51
2019-02-09T08:12:20.455Z,8.52
2019-02-09T08:14:50.471Z,8.58
2019-02-09T08:17:20.560Z,8.56
2019-02-09T08:19:50.541Z,8.60
2019-02-09T08:22:20.551Z,8.68
2019-02-09T08:24:50.505Z,8.77
2019-02-09T08:27:23.541Z,8.71
2019-02-09T08:29:53.403Z,8.65
2019-02-09T08:32:23.370Z,8.65
2019-02-09T08:34:53.408Z,8.69
2019-02-09T08:37:23.377Z,8.83
2019-02-09T08:39:53.387Z,8.93
2019-02-09T08:42:23.455Z,8.88
2019-02-09T08:44:53.453Z,8.89
2019-02-09T08:47:24.669Z,8.91
2019-02-09T08:49:54.697Z,8.75
2019-02-09T08:52:24.749Z,8.97
2019-02-09T08:54:54.787Z,8.84
2019-02-09T08:57:24.869Z,8.91
2019-02-09T08:59:54.837Z,8.91
2019-02-09T09:02:24.861Z,9.01
2019-02-09T09:04:54.863Z,8.99
2019-02-09T09:07:24.849Z,9.07
2019-02-09T09:09:54.835Z,9.09
2019-02-09T09:12:24.787Z,9.07
2019-02-09T09:14:54.799Z,9.14
2019-02-09T09:17:24.768Z,9.13
2019-02-09T09:19:54.793Z,9.19
2019-02-09T09:22:24.784Z,9.08
2019-02-09T09:24:54.778Z,9.06
2019-02-09T09:27:24.920Z,9.13
2019-02-09T09:29:54.906Z,9.18
2019-02-09T09:32:28.775Z,9.21
2019-02-09T09:34:56.747Z,9.34
2019-02-09T09:37:26.761Z,9.27
2019-02-09T09:39:56.733Z,9.47
2019-02-09T09:42:26.741Z,9.45
2019-02-09T09:44:56.686Z,9.50
2019-02-09T09:47:26.706Z,9.52
2019-02-09T09:49:56.697Z,9.63
2019-02-09T09:52:26.698Z,9.55
2019-02-09T09:54:56.923Z,9.60
2019-02-09T09:57:26.913Z,9.62
2019-02-09T09:59:56.904Z,9.74
2019-02-09T10:02:26.988Z,9.69
2019-02-09T10:04:56.968Z,9.79
2019-02-09T10:07:26.941Z,9.64
2019-02-09T10:09:57.306Z,9.61
2019-02-09T10:12:27.309Z,9.63
2019-02-09T10:14:57.301Z,9.71
2019-02-09T10:17:27.340Z,9.71
2019-02-09T10:19:57.598Z,9.63
2019-02-09T10:22:27.561Z,9.68
2019-02-09T10:24:57.527Z,9.67
2019-02-09T10:27:27.474Z,9.75
2019-02-09T10:29:57.562Z,9.79
2019-02-09T10:32:27.554Z,9.85
2019-02-09T10:34:57.548Z,9.95
2019-02-09T10:37:27.526Z,9.93
2019-02-09T10:39:57.524Z,9.94
2019-02-09T10:42:27.532Z,9.96
2019-02-09T10:44:57.522Z,10.14
2019-02-09T10:47:27.512Z,9.97
2019-02-09T10:49:57.507Z,10.02
2019-02-09T10:52:27.497Z,10.05
2019-02-09T10:54:57.502Z,10.23
2019-02-09T10:57:27.544Z,10.13
2019-02-09T10:59:57.618Z,10.08
2019-02-09T11:02:27.677Z,10.07
2019-02-09T11:04:57.672Z,10.01
2019-02-09T11:07:27.688Z,10.00
2019-02-09T11:09:57.708Z,10.11
2019-02-09T11:12:27.776Z,10.02
2019-02-09T11:14:57.881Z,10.04
2019-02-09T11:17:27.974Z,10.19
2019-02-09T11:19:57.979Z,10.21
2019-02-09T11:22:28.107Z,10.18
2019-02-09T11:24:58.134Z,10.18
2019-02-09T11:27:28.279Z,10.12
2019-02-09T11:29:58.352Z,10.11
2019-02-09T11:32:28.334Z,10.16
2019-02-09T11:34:58.335Z,10.22
2019-02-09T11:37:28.324Z,10.18
2019-02-09T11:39:58.643Z,10.35
2019-02-09T11:42:28.706Z,10.34
2019-02-09T11:44:58.743Z,10.27
2019-02-09T11:47:28.769Z,10.39
2019-02-09T11:49:58.778Z,10.46
2019-02-09T11:52:28.768Z,10.50
2019-02-09T11:54:58.768Z,10.51
2019-02-09T11:57:28.740Z,10.53
2019-02-09T11:59:58.751Z,10.63
2019-02-09T12:02:28.800Z,10.47
2019-02-09T12:04:58.904Z,10.53
2019-02-09T12:07:28.940Z,10.58
2019-02-09T12:09:58.976Z,10.43
2019-02-09T12:12:28.972Z,10.24
2019-02-09T12:14:58.965Z,9.91
2019-02-09T12:17:29.438Z,9.61
2019-02-09T12:19:59.468Z,9.62
2019-02-09T12:22:29.521Z,9.56
2019-02-09T12:24:59.604Z,9.64
2019-02-09T12:27:30.136Z,9.61
2019-02-09T12:30:00.178Z,9.74
2019-02-09T12:32:30.404Z,9.71
2019-02-09T12:35:00.517Z,9.74
2019-02-09T12:37:30.590Z,9.71
2019-02-09T12:40:00.584Z,9.87
2019-02-09T12:42:32.869Z,10.03
2019-02-09T12:45:04.798Z,10.14
2019-02-09T12:47:34.815Z,10.19
2019-02-09T12:50:06.666Z,10.28
2019-02-09T12:52:36.649Z,10.28
2019-02-09T12:55:07.311Z,10.33
2019-02-09T12:57:37.313Z,10.45
2019-02-09T13:00:11.301Z,10.48
2019-02-09T13:02:41.323Z,10.53
2019-02-09T13:05:11.523Z,10.72
2019-02-09T13:10:38.837Z,10.64
2019-02-09T13:13:08.934Z,10.65
2019-02-09T13:15:38.932Z,10.69
2019-02-09T13:18:09.164Z,10.62
2019-02-09T13:20:39.179Z,10.59
2019-02-09T13:23:10.322Z,10.55
2019-02-09T13:25:40.376Z,10.57
2019-02-09T13:28:10.436Z,10.49
2019-02-09T13:30:40.669Z,10.58
2019-02-09T13:33:10.781Z,10.67
2019-02-09T13:35:40.853Z,10.77
2019-02-09T13:38:10.884Z,10.69
2019-02-09T13:40:41.004Z,10.60
2019-02-09T13:43:11.183Z,10.60
2019-02-09T13:45:44.277Z,10.63
2019-02-09T13:48:14.269Z,10.71
2019-02-09T13:50:44.321Z,10.70
2019-02-09T13:53:14.331Z,10.72
2019-02-09T13:55:44.322Z,10.61
2019-02-09T13:58:14.329Z,10.71
2019-02-09T14:00:44.309Z,10.73
2019-02-09T14:03:14.403Z,10.76
2019-02-09T14:05:44.511Z,10.67
2019-02-09T14:08:14.591Z,10.42
2019-02-09T14:10:44.579Z,10.52
2019-02-09T14:13:14.982Z,10.40
2019-02-09T14:15:45.068Z,10.45
2019-02-09T14:18:15.089Z,10.25
2019-02-09T14:20:45.639Z,9.94
2019-02-09T14:23:15.651Z,9.59
2019-02-09T14:25:45.671Z,9.37
2019-02-09T14:28:15.706Z,9.00
2019-02-09T14:30:45.719Z,9.05
2019-02-09T14:33:15.747Z,8.82
2019-02-09T14:35:45.749Z,8.89
2019-02-09T14:38:16.102Z,8.85
2019-02-09T14:40:46.088Z,8.73
2019-02-09T14:43:16.257Z,8.94
2019-02-09T14:45:46.454Z,8.87
2019-02-09T14:48:16.518Z,8.99
2019-02-09T14:50:46.543Z,9.11
2019-02-09T14:53:16.545Z,9.05
2019-02-09T14:55:46.561Z,9.12
2019-02-09T14:58:16.572Z,9.19
2019-02-09T15:00:51.713Z,9.19
2019-02-09T15:03:28.139Z,9.25
2019-02-09T15:05:53.437Z,9.31
2019-02-09T15:08:23.457Z,9.08
2019-02-09T15:10:53.555Z,9.25
2019-02-09T15:13:24.221Z,9.32
2019-02-09T15:15:58.970Z,9.26
2019-02-09T15:18:28.990Z,9.47
2019-02-09T15:21:01.093Z,9.24
2019-02-09T15:23:31.209Z,9.39
2019-02-09T15:26:04.324Z,9.42
2019-02-09T15:28:34.344Z,9.40
2019-02-09T15:31:05.118Z,9.47
2019-02-09T15:33:35.327Z,9.42
2019-02-09T15:36:05.534Z,9.43
2019-02-09T15:38:35.628Z,9.51
2019-02-09T15:41:05.619Z,9.50
2019-02-09T15:43:35.613Z,9.46
2019-02-09T15:46:05.777Z,9.41
2019-02-09T15:48:35.744Z,9.43
2019-02-09T15:51:06.223Z,9.42
2019-02-09T15:53:36.192Z,9.41
2019-02-09T15:56:06.242Z,9.44
2019-02-09T15:58:36.243Z,9.47
2019-02-09T16:01:06.412Z,9.50
2019-02-09T16:03:36.543Z,9.38
2019-02-09T16:06:06.713Z,9.36
2019-02-09T16:08:36.780Z,9.33
2019-02-09T16:11:06.811Z,9.40
2019-02-09T16:13:36.903Z,9.40
2019-02-09T16:16:07.059Z,9.22
2019-02-09T16:18:37.155Z,9.19
2019-02-09T16:21:07.170Z,9.10
2019-02-09T16:23:37.286Z,9.01
2019-02-09T16:26:07.406Z,8.76
2019-02-09T16:28:37.855Z,8.77
2019-02-09T16:31:07.844Z,8.73
2019-02-09T16:33:37.888Z,8.51
2019-02-09T16:36:07.868Z,8.67
2019-02-09T16:38:39.482Z,8.43
2019-02-09T16:41:09.638Z,8.47
2019-02-09T16:43:39.634Z,8.37
2019-02-09T16:46:09.652Z,8.23
2019-02-09T16:48:39.628Z,8.46
2019-02-09T16:51:09.657Z,8.68
2019-02-09T16:53:39.664Z,8.32
2019-02-09T16:56:09.804Z,8.35
2019-02-09T16:58:39.826Z,8.29
2019-02-09T17:01:09.854Z,8.24
2019-02-09T17:03:40.008Z,8.17
2019-02-09T17:06:10.172Z,8.21
2019-02-09T17:08:40.175Z,8.15
2019-02-09T17:11:10.331Z,8.15
2019-02-09T17:13:40.340Z,8.05
2019-02-09T17:16:10.462Z,8.04
2019-02-09T17:18:40.487Z,7.98
2019-02-09T17:21:10.861Z,8.12
2019-02-09T17:23:41.007Z,8.07
2019-02-09T17:26:11.095Z,8.01
2019-02-09T17:28:41.082Z,8.00
2019-02-09T17:31:11.218Z,8.03
2019-02-09T17:33:41.589Z,7.95
2019-02-09T17:36:12.204Z,8.18
2019-02-09T17:38:42.206Z,7.95
2019-02-09T17:41:12.216Z,8.28
2019-02-09T17:43:42.227Z,7.99
2019-02-09T17:46:17.118Z,8.04
2019-02-09T17:48:47.206Z,8.12
2019-02-09T17:51:17.248Z,7.89
2019-02-09T17:53:47.296Z,8.12
2019-02-09T17:56:17.285Z,8.11
2019-02-09T17:58:47.334Z,8.05
2019-02-09T18:01:17.388Z,8.10
2019-02-09T18:03:47.621Z,8.09
2019-02-09T18:06:17.661Z,8.05
2019-02-09T18:08:47.960Z,8.15
2019-02-09T18:11:18.068Z,8.08
2019-02-09T18:13:48.102Z,8.07
2019-02-09T18:16:18.180Z,8.06
2019-02-09T18:18:50.204Z,8.05
2019-02-09T18:21:20.699Z,8.25
2019-02-09T18:23:50.738Z,8.12
2019-02-09T18:26:20.751Z,8.37
2019-02-09T18:28:51.633Z,8.18
2019-02-09T18:31:21.651Z,8.14
2019-02-09T18:33:51.681Z,8.19
2019-02-09T18:36:21.703Z,8.13
2019-02-09T18:38:51.936Z,8.21
2019-02-09T18:41:21.965Z,8.24
2019-02-09T18:43:52.023Z,8.29
2019-02-09T18:46:22.075Z,8.26
2019-02-09T18:48:52.090Z,8.35
2019-02-09T18:51:22.160Z,8.31
2019-02-09T18:53:52.176Z,8.28
2019-02-09T18:56:22.232Z,8.25
2019-02-09T18:58:52.272Z,8.40
2019-02-09T19:01:22.329Z,8.28
2019-02-09T19:03:52.329Z,8.28
2019-02-09T19:06:22.395Z,8.09
2019-02-09T19:08:52.379Z,8.06
2019-02-09T19:11:26.055Z,8.13
2019-02-09T19:13:56.064Z,8.17
2019-02-09T19:16:26.148Z,8.22
2019-02-09T19:18:56.167Z,8.15
2019-02-09T19:21:26.263Z,8.21
2019-02-09T19:23:56.742Z,8.20
2019-02-09T19:26:26.809Z,8.26
2019-02-09T19:28:56.827Z,8.29
2019-02-09T19:31:26.923Z,8.34
2019-02-09T19:33:58.286Z,8.30
2019-02-09T19:36:28.337Z,8.27
2019-02-09T19:38:58.600Z,8.37
2019-02-09T19:41:28.679Z,8.24
2019-02-09T19:43:58.692Z,8.41
2019-02-09T19:46:28.765Z,8.36
2019-02-09T19:48:58.775Z,8.34
2019-02-09T19:51:28.835Z,8.40
2019-02-09T19:53:58.865Z,8.46
2019-02-09T19:56:28.923Z,8.49
2019-02-09T19:58:58.978Z,8.49
2019-02-09T20:01:29.043Z,8.30
2019-02-09T20:03:59.080Z,8.32
2019-02-09T20:06:29.331Z,8.29
2019-02-09T20:08:59.360Z,8.30
2019-02-09T20:11:29.368Z,8.27
2019-02-09T20:13:59.355Z,8.16
2019-02-09T20:16:29.399Z,8.23
2019-02-09T20:18:59.423Z,8.19
2019-02-09T20:21:29.436Z,8.27
2019-02-09T20:23:59.787Z,8.34
2019-02-09T20:26:29.787Z,8.43
2019-02-09T20:28:59.826Z,8.44
2019-02-09T20:31:29.845Z,8.37
2019-02-09T20:33:59.843Z,8.24
2019-02-09T20:36:29.919Z,8.27
2019-02-09T20:39:04.590Z,8.27
2019-02-09T20:41:31.681Z,8.22
2019-02-09T20:44:01.676Z,8.25
2019-02-09T20:46:31.736Z,8.30
2019-02-09T20:49:01.752Z,8.35
2019-02-09T20:51:31.802Z,8.30
2019-02-09T20:54:01.783Z,8.28
2019-02-09T20:56:31.824Z,8.24
2019-02-09T20:59:02.285Z,8.33
2019-02-09T21:01:32.452Z,8.26
2019-02-09T21:04:03.462Z,8.30
2019-02-09T21:06:33.471Z,8.23
2019-02-09T21:09:05.334Z,8.24
2019-02-09T21:11:35.351Z,8.29
2019-02-09T21:14:05.788Z,8.36
2019-02-09T21:16:35.811Z,8.24
2019-02-09T21:19:05.828Z,8.37
2019-02-09T21:21:35.831Z,8.34
2019-02-09T21:24:07.371Z,8.41
2019-02-09T21:26:37.444Z,8.40
2019-02-09T21:29:08.027Z,8.43
2019-02-09T21:31:38.071Z,8.41
2019-02-09T21:34:08.168Z,8.42
2019-02-09T21:36:38.891Z,8.42
2019-02-09T21:39:10.660Z,8.44
2019-02-09T21:41:40.671Z,8.30
2019-02-09T21:44:10.720Z,8.34
2019-02-09T21:46:40.744Z,8.15
2019-02-09T21:49:10.778Z,8.21
2019-02-09T21:51:40.812Z,8.22
2019-02-09T21:54:10.810Z,8.21
2019-02-09T21:56:40.846Z,8.16
2019-02-09T21:59:10.838Z,8.28
2019-02-09T22:01:41.933Z,8.19
2019-02-09T22:04:11.951Z,8.19
2019-02-09T22:06:41.999Z,8.28
2019-02-09T22:09:12.291Z,8.16
2019-02-09T22:11:42.316Z,8.19
2019-02-09T22:14:12.412Z,8.04
2019-02-09T22:16:42.487Z,8.10
2019-02-09T22:19:12.668Z,8.14
2019-02-09T22:21:42.860Z,8.10
2019-02-09T22:24:13.094Z,8.12
2019-02-09T22:26:43.208Z,8.21
2019-02-09T22:29:13.232Z,8.13
2019-02-09T22:31:43.291Z,8.06
2019-02-09T22:34:13.356Z,8.19
2019-02-09T22:36:43.438Z,8.22
2019-02-09T22:39:13.394Z,8.18
2019-02-09T22:41:49.019Z,8.10
2019-02-09T22:44:15.404Z,8.20
2019-02-09T22:46:45.459Z,8.10
2019-02-09T22:49:16.219Z,8.07
2019-02-09T22:51:46.234Z,8.16
2019-02-09T22:54:16.547Z,7.97
2019-02-09T22:56:46.567Z,8.06
2019-02-09T22:59:16.743Z,8.03
2019-02-09T23:01:51.026Z,8.07
2019-02-09T23:05:02.660Z,8.11
2019-02-09T23:07:36.910Z,8.05
2019-02-09T23:10:10.986Z,7.95
2019-02-09T23:12:48.335Z,8.07
2019-02-09T23:15:12.973Z,8.17
2019-02-09T23:17:43.450Z,8.22
2019-02-09T23:20:13.514Z,8.11
2019-02-09T23:22:44.511Z,8.21
2019-02-09T23:25:14.806Z,8.20
2019-02-09T23:27:44.921Z,8.19
2019-02-09T23:30:14.966Z,8.16
2019-02-09T23:32:45.093Z,8.00
2019-02-09T23:35:15.133Z,8.03
2019-02-09T23:37:45.295Z,8.05
2019-02-09T23:40:15.338Z,8.03
2019-02-09T23:42:45.450Z,8.05
2019-02-09T23:45:15.567Z,7.97
2019-02-09T23:47:45.678Z,8.00
2019-02-09T23:50:15.787Z,8.03
2019-02-09T23:52:45.917Z,7.98
2019-02-09T23:55:16.330Z,8.04
2019-02-09T23:57:46.406Z,8.14
